Christian W Cenac — WDF5379 — position and weather

sailwx.info

Track history (hours):
 
Tides and Currents Weather Stations Pressure Air Temp Water Temp Dewpoint Dewpoint Depression Visibility Wind Speed Wind Dir Waves Ship Positions

Christian W Cenac

Owner: CTCO Marine Services LLC, Houma, LA. More information available from US FCC via Universal Licensing System and Coast Guard Vessel Documentation Center.

Last reported at 2018-May-09 03:31 UTC. Time now 2018-Jun-20 09:25 UTC.
Position N 29°37' W 095°02'.
Warning: this ship's position is 42 days out of date.

Length 85 m; draft 2.1 m.

Type: Tug. MMSI: 367462490.

Date/timePositionNaut miles runAvg speedWind from/ knotsBaromVisibWave heightAir tempDewpointWater temp
2018-May-09 03:31N 29°37' W 095°02'0 0.0
2018-May-09 03:01N 29°37' W 095°02'0 0.0
2018-May-09 02:31N 29°37' W 095°02'0 0.0
2018-May-09 02:00N 29°37' W 095°02'0 0.0
2018-May-09 01:31N 29°37' W 095°02'0 0.0
2018-May-09 01:00N 29°37' W 095°02'0 0.0
2018-May-09 00:31N 29°37' W 095°02'0 0.0
2018-May-09 00:01N 29°37' W 095°02'0 0.0
2018-May-08 23:30N 29°37' W 095°02'0 0.0
2018-May-08 23:00N 29°37' W 095°02'0 0.0
2018-May-08 22:30N 29°37' W 095°02'0 0.0
2018-May-08 22:00N 29°37' W 095°02'0 0.0
2018-May-08 21:31N 29°37' W 095°02'0 0.0
2018-May-08 21:00N 29°37' W 095°02'0 0.0
2018-May-08 20:31N 29°37' W 095°02'0 0.0
2018-May-08 20:01N 29°37' W 095°02'0 0.0
2018-May-08 19:31N 29°37' W 095°02'0 0.0
2018-May-08 19:01N 29°37' W 095°02'0 0.0
2018-May-08 18:30N 29°37' W 095°02'0 0.0
2018-May-08 18:00N 29°37' W 095°02'0 0.0
2018-May-08 17:31N 29°37' W 095°02'0 0.0
2018-May-08 17:01N 29°37' W 095°02'0 0.0
2018-May-08 16:31N 29°37' W 095°02'0 0.0
2018-May-08 16:01N 29°37' W 095°02'0 0.0
2018-May-08 15:31N 29°37' W 095°02'0 0.0
2018-May-08 15:00N 29°37' W 095°02'0 0.0
2018-May-08 14:30N 29°37' W 095°02'0 0.0
2018-May-08 14:01N 29°37' W 095°02'0 0.0
2018-May-08 13:30N 29°37' W 095°02'0 0.0
2018-May-08 13:00N 29°37' W 095°02'1 1.3
2018-May-08 12:30N 29°37' W 095°01'3 5.7
2018-May-08 12:01N 29°38' W 094°58'4 8.0
2018-May-08 11:30N 29°41' W 094°59'3 6.3
2018-May-08 11:00N 29°44' W 095°02'3 6.6
2018-May-08 10:29N 29°46' W 095°05'1 0.6
2018-May-08 08:56N 29°46' W 095°06'0 0.0
2018-May-08 08:29N 29°46' W 095°06'0 0.0
2018-May-08 07:59N 29°46' W 095°06'0 0.0
2018-May-08 07:29N 29°46' W 095°06'0 0.0
2018-May-08 06:59N 29°46' W 095°06'0 0.0
2018-May-08 06:29N 29°46' W 095°06'0 0.0
2018-May-08 05:59N 29°46' W 095°06'0 0.0
2018-May-08 04:35N 29°46' W 095°06'0 0.0
2018-May-08 03:23N 29°46' W 095°06'0 0.0
2018-May-08 01:26N 29°46' W 095°06'2 0.2
2018-May-07 13:47N 29°47' W 095°04'1 1.0
2018-May-07 12:35N 29°46' W 095°05'4 2.5
2018-May-07 10:57N 29°43' W 095°01'3 5.6
2018-May-07 10:24N 29°41' W 094°59'3 6.3
2018-May-07 09:52N 29°38' W 094°58'2 6.5
2018-May-07 09:30N 29°36' W 094°57'3 6.6
2018-May-07 09:01N 29°33' W 094°54'3 6.2
2018-May-07 08:30N 29°30' W 094°52'3 6.0
2018-May-07 08:00N 29°28' W 094°51'3 6.1
2018-May-07 07:29N 29°25' W 094°49'5 1.8
2018-May-07 04:29N 29°25' W 094°43'0 0.0
2018-May-07 04:00N 29°25' W 094°43'0 0.0
2018-May-07 03:30N 29°25' W 094°43'0 0.0
2018-May-07 03:00N 29°25' W 094°43'0 0.0
2018-May-07 02:29N 29°25' W 094°43'0 0.0
2018-May-07 02:00N 29°25' W 094°43'0 0.0
2018-May-07 01:30N 29°25' W 094°43'0 0.0
2018-May-07 00:57N 29°25' W 094°43'0 0.0
2018-May-06 14:14N 29°25' W 094°43'0 0.0
2018-May-06 14:00N 29°25' W 094°43'0 0.0
2018-May-06 12:52N 29°25' W 094°43'27 0.9
2018-May-05 06:19N 29°39' W 094°16'2 5.3
2018-May-05 06:00N 29°40' W 094°14'3 5.5
2018-May-05 05:29N 29°41' W 094°11'3 5.6
2018-May-05 05:01N 29°42' W 094°08'3 5.6
2018-May-05 04:30N 29°44' W 094°06'3 6.0
2018-May-05 04:01N 29°46' W 094°03'3 5.7
2018-May-05 03:31N 29°48' W 094°01'3 5.8
2018-May-05 03:00N 29°49' W 093°58'3 6.7
2018-May-05 02:30N 29°52' W 093°56'4 8.4
2018-May-05 02:00N 29°55' W 093°53'4 7.0
2018-May-05 01:30N 29°58' W 093°51'4 6.8
2018-May-05 00:58N 29°60' W 093°47'3 6.7
2018-May-05 00:30N 30°02' W 093°44'9 6.0
2018-May-04 22:58N 30°04' W 093°34'3 6.1
2018-May-04 22:28N 30°04' W 093°30'3 5.9
2018-May-04 22:00N 30°04' W 093°27'3 5.7
2018-May-04 21:30N 30°04' W 093°24'3 5.6
2018-May-04 21:00N 30°04' W 093°21'3 5.6
2018-May-04 20:30N 30°06' W 093°19'0 0.3
2018-May-04 20:00N 30°06' W 093°19'0 0.0
2018-May-04 19:30N 30°06' W 093°19'0 0.2
2018-May-04 19:00N 30°06' W 093°19'1 2.7
2018-May-04 18:30N 30°05' W 093°18'1 1.6
2018-May-04 18:00N 30°05' W 093°17'1 1.8
2018-May-04 17:30N 30°04' W 093°16'3 5.0
2018-May-04 17:00N 30°02' W 093°15'3 5.4
2018-May-04 16:30N 29°60' W 093°13'3 5.8
2018-May-04 16:00N 29°57' W 093°11'3 5.3
2018-May-04 15:30N 29°56' W 093°08'122 4.2
2018-May-03 10:10N 29°32' W 090°50'1 6.5
2018-May-03 10:00N 29°32' W 090°48'3 5.4
2018-May-03 09:30N 29°33' W 090°45'2 4.6
2018-May-03 09:00N 29°34' W 090°43'2 4.7
2018-May-03 08:30N 29°36' W 090°43'1 1.8
2018-May-03 08:00N 29°37' W 090°42'0 0.0
2018-May-03 07:30N 29°37' W 090°42'0 0.0
2018-May-03 06:58N 29°37' W 090°42'2 4.0
2018-May-03 06:30N 29°36' W 090°40'3 5.8
2018-May-03 06:00N 29°35' W 090°37'32 0.7
2018-May-01 06:05N 29°50' W 090°04'0 0.1
2018-May-01 06:00N 29°50' W 090°04'27 1.0
2018-Apr-30 02:00N 29°33' W 090°28'3 5.5
2018-Apr-30 01:26N 29°34' W 090°32'3 5.4
2018-Apr-30 00:49N 29°35' W 090°35'2 5.4
2018-Apr-30 00:30N 29°35' W 090°37'3 5.2
2018-Apr-30 00:00N 29°36' W 090°40'2 4.6
2018-Apr-29 23:30N 29°37' W 090°42'2 4.5
2018-Apr-29 23:00N 29°34' W 090°43'2 4.0
2018-Apr-29 22:30N 29°33' W 090°45'  
Track history (hours):
 
Tides and Currents Weather Stations Pressure Air Temp Water Temp Dewpoint Dewpoint Depression Visibility Wind Speed Wind Dir Waves Ship Positions

Christian W Cenac

Owner: CTCO Marine Services LLC, Houma, LA. More information available from US FCC via Universal Licensing System and Coast Guard Vessel Documentation Center.

Last reported at 2018-May-09 03:31 UTC. Time now 2018-Jun-20 09:25 UTC.
Position N 29°37' W 095°02'.
Warning: this ship's position is 42 days out of date.

Length 85 m; draft 2.1 m.

Type: Tug. MMSI: 367462490.

Date/timePositionNaut miles runAvg speedWind from/ knotsBaromVisibWave heightAir tempDewpointWater temp
2018-May-09 03:31N 29°37' W 095°02'0 0.0
2018-May-09 03:01N 29°37' W 095°02'0 0.0
2018-May-09 02:31N 29°37' W 095°02'0 0.0
2018-May-09 02:00N 29°37' W 095°02'0 0.0
2018-May-09 01:31N 29°37' W 095°02'0 0.0
2018-May-09 01:00N 29°37' W 095°02'0 0.0
2018-May-09 00:31N 29°37' W 095°02'0 0.0
2018-May-09 00:01N 29°37' W 095°02'0 0.0
2018-May-08 23:30N 29°37' W 095°02'0 0.0
2018-May-08 23:00N 29°37' W 095°02'0 0.0
2018-May-08 22:30N 29°37' W 095°02'0 0.0
2018-May-08 22:00N 29°37' W 095°02'0 0.0
2018-May-08 21:31N 29°37' W 095°02'0 0.0
2018-May-08 21:00N 29°37' W 095°02'0 0.0
2018-May-08 20:31N 29°37' W 095°02'0 0.0
2018-May-08 20:01N 29°37' W 095°02'0 0.0
2018-May-08 19:31N 29°37' W 095°02'0 0.0
2018-May-08 19:01N 29°37' W 095°02'0 0.0
2018-May-08 18:30N 29°37' W 095°02'0 0.0
2018-May-08 18:00N 29°37' W 095°02'0 0.0
2018-May-08 17:31N 29°37' W 095°02'0 0.0
2018-May-08 17:01N 29°37' W 095°02'0 0.0
2018-May-08 16:31N 29°37' W 095°02'0 0.0
2018-May-08 16:01N 29°37' W 095°02'0 0.0
2018-May-08 15:31N 29°37' W 095°02'0 0.0
2018-May-08 15:00N 29°37' W 095°02'0 0.0
2018-May-08 14:30N 29°37' W 095°02'0 0.0
2018-May-08 14:01N 29°37' W 095°02'0 0.0
2018-May-08 13:30N 29°37' W 095°02'0 0.0
2018-May-08 13:00N 29°37' W 095°02'1 1.3
2018-May-08 12:30N 29°37' W 095°01'3 5.7
2018-May-08 12:01N 29°38' W 094°58'4 8.0
2018-May-08 11:30N 29°41' W 094°59'3 6.3
2018-May-08 11:00N 29°44' W 095°02'3 6.6
2018-May-08 10:29N 29°46' W 095°05'1 0.6
2018-May-08 08:56N 29°46' W 095°06'0 0.0
2018-May-08 08:29N 29°46' W 095°06'0 0.0
2018-May-08 07:59N 29°46' W 095°06'0 0.0
2018-May-08 07:29N 29°46' W 095°06'0 0.0
2018-May-08 06:59N 29°46' W 095°06'0 0.0
2018-May-08 06:29N 29°46' W 095°06'0 0.0
2018-May-08 05:59N 29°46' W 095°06'0 0.0
2018-May-08 04:35N 29°46' W 095°06'0 0.0
2018-May-08 03:23N 29°46' W 095°06'0 0.0
2018-May-08 01:26N 29°46' W 095°06'2 0.2
2018-May-07 13:47N 29°47' W 095°04'1 1.0
2018-May-07 12:35N 29°46' W 095°05'4 2.5
2018-May-07 10:57N 29°43' W 095°01'3 5.6
2018-May-07 10:24N 29°41' W 094°59'3 6.3
2018-May-07 09:52N 29°38' W 094°58'2 6.5
2018-May-07 09:30N 29°36' W 094°57'3 6.6
2018-May-07 09:01N 29°33' W 094°54'3 6.2
2018-May-07 08:30N 29°30' W 094°52'3 6.0
2018-May-07 08:00N 29°28' W 094°51'3 6.1
2018-May-07 07:29N 29°25' W 094°49'5 1.8
2018-May-07 04:29N 29°25' W 094°43'0 0.0
2018-May-07 04:00N 29°25' W 094°43'0 0.0
2018-May-07 03:30N 29°25' W 094°43'0 0.0
2018-May-07 03:00N 29°25' W 094°43'0 0.0
2018-May-07 02:29N 29°25' W 094°43'0 0.0
2018-May-07 02:00N 29°25' W 094°43'0 0.0
2018-May-07 01:30N 29°25' W 094°43'0 0.0
2018-May-07 00:57N 29°25' W 094°43'0 0.0
2018-May-06 14:14N 29°25' W 094°43'0 0.0
2018-May-06 14:00N 29°25' W 094°43'0 0.0
2018-May-06 12:52N 29°25' W 094°43'27 0.9
2018-May-05 06:19N 29°39' W 094°16'2 5.3
2018-May-05 06:00N 29°40' W 094°14'3 5.5
2018-May-05 05:29N 29°41' W 094°11'3 5.6
2018-May-05 05:01N 29°42' W 094°08'3 5.6
2018-May-05 04:30N 29°44' W 094°06'3 6.0
2018-May-05 04:01N 29°46' W 094°03'3 5.7
2018-May-05 03:31N 29°48' W 094°01'3 5.8
2018-May-05 03:00N 29°49' W 093°58'3 6.7
2018-May-05 02:30N 29°52' W 093°56'4 8.4
2018-May-05 02:00N 29°55' W 093°53'4 7.0
2018-May-05 01:30N 29°58' W 093°51'4 6.8
2018-May-05 00:58N 29°60' W 093°47'3 6.7
2018-May-05 00:30N 30°02' W 093°44'9 6.0
2018-May-04 22:58N 30°04' W 093°34'3 6.1
2018-May-04 22:28N 30°04' W 093°30'3 5.9
2018-May-04 22:00N 30°04' W 093°27'3 5.7
2018-May-04 21:30N 30°04' W 093°24'3 5.6
2018-May-04 21:00N 30°04' W 093°21'3 5.6
2018-May-04 20:30N 30°06' W 093°19'0 0.3
2018-May-04 20:00N 30°06' W 093°19'0 0.0
2018-May-04 19:30N 30°06' W 093°19'0 0.2
2018-May-04 19:00N 30°06' W 093°19'1 2.7
2018-May-04 18:30N 30°05' W 093°18'1 1.6
2018-May-04 18:00N 30°05' W 093°17'1 1.8
2018-May-04 17:30N 30°04' W 093°16'3 5.0
2018-May-04 17:00N 30°02' W 093°15'3 5.4
2018-May-04 16:30N 29°60' W 093°13'3 5.8
2018-May-04 16:00N 29°57' W 093°11'3 5.3
2018-May-04 15:30N 29°56' W 093°08'122 4.2
2018-May-03 10:10N 29°32' W 090°50'1 6.5
2018-May-03 10:00N 29°32' W 090°48'3 5.4
2018-May-03 09:30N 29°33' W 090°45'2 4.6
2018-May-03 09:00N 29°34' W 090°43'2 4.7
2018-May-03 08:30N 29°36' W 090°43'1 1.8
2018-May-03 08:00N 29°37' W 090°42'0 0.0
2018-May-03 07:30N 29°37' W 090°42'0 0.0
2018-May-03 06:58N 29°37' W 090°42'2 4.0
2018-May-03 06:30N 29°36' W 090°40'3 5.8
2018-May-03 06:00N 29°35' W 090°37'32 0.7
2018-May-01 06:05N 29°50' W 090°04'0 0.1
2018-May-01 06:00N 29°50' W 090°04'27 1.0
2018-Apr-30 02:00N 29°33' W 090°28'3 5.5
2018-Apr-30 01:26N 29°34' W 090°32'3 5.4
2018-Apr-30 00:49N 29°35' W 090°35'2 5.4
2018-Apr-30 00:30N 29°35' W 090°37'3 5.2
2018-Apr-30 00:00N 29°36' W 090°40'2 4.6
2018-Apr-29 23:30N 29°37' W 090°42'2 4.5
2018-Apr-29 23:00N 29°34' W 090°43'2 4.0
2018-Apr-29 22:30N 29°33' W 090°45'  

Dump ship's entire track history